ユジノサハリンスク の空港の天気 - METARとTAF

ホムトヴォ空港(ユジノサハリンスク) ( UHSS / UUS ) - ロシア ユジノサハリンスク
飛行場実況気象(Metar)
観測時間05/29 07:30 VLAT (05/28 21:30 UTC)
風向・風速北 10m/s 瞬間風速15m/s
視程3000m
天気現象弱いしゅう雨 もや
全天の4割程度の雲 雲底高度 180m
全天の8割程度の雲 雲底高度 550m
気温6℃
湿度93%
気圧1006hPa
METARUHSS 282130Z 35010G15MPS 3000 -SHRA BR SCT006 BKN018CB 06/05 Q1006 R01/250255 NOSIG RMK MT OBSC QFE753/1004
過去の天気等 Google飛行場航空写真 Wunderground天気予報

過去48時間のMETAR

飛行場予報(TAF)
発表時間: 5/29 05:45 VLAT (5/28 19:45 UTC)
予報対象時間: 29日7時 VLAT ~ 30日13時 VLAT
風向・風速北 7m/s 瞬間風速 12m/s
視程6000m
天気現象弱いしゅう雨
全天の8割程度の雲 雲底高度 210m
全天の8割程度の積乱雲 雲底高度 760m
29日14時 VLAT から
風向・風速北 3m/s
視程10km以上
全天の8割程度の積乱雲 雲底高度 910m
TAF UHSS 281945Z 2821/3003 36007G12MPS 6000 -SHRA BKN007 BKN025CB
FM290400 01003MPS 9999 BKN030CB